sensor_id;sensor_type;location;lat;lon;timestamp;P1;durP1;ratioP1;P2;durP2;ratioP2
60472;SDS011;46318;52.716;6.444;2022-07-03T00:01:33;4.82;;;4.28;;
60472;SDS011;46318;52.716;6.444;2022-07-03T00:04:02;5.15;;;4.40;;
60472;SDS011;46318;52.716;6.444;2022-07-03T00:06:29;4.47;;;4.03;;
60472;SDS011;46318;52.716;6.444;2022-07-03T00:08:58;5.00;;;4.40;;
60472;SDS011;46318;52.716;6.444;2022-07-03T00:11:25;4.45;;;4.05;;
60472;SDS011;46318;52.716;6.444;2022-07-03T00:13:51;4.35;;;3.95;;
60472;SDS011;46318;52.716;6.444;2022-07-03T00:16:17;4.57;;;4.18;;
60472;SDS011;46318;52.716;6.444;2022-07-03T00:18:43;6.00;;;4.22;;
60472;SDS011;46318;52.716;6.444;2022-07-03T00:21:09;6.00;;;4.30;;
60472;SDS011;46318;52.716;6.444;2022-07-03T00:23:46;5.57;;;4.50;;
60472;SDS011;46318;52.716;6.444;2022-07-03T00:26:18;8.80;;;4.60;;
60472;SDS011;46318;52.716;6.444;2022-07-03T00:28:46;6.20;;;4.32;;
60472;SDS011;46318;52.716;6.444;2022-07-03T00:31:12;6.63;;;5.05;;
60472;SDS011;46318;52.716;6.444;2022-07-03T00:33:39;4.88;;;4.47;;
60472;SDS011;46318;52.716;6.444;2022-07-03T00:36:06;4.30;;;4.00;;
60472;SDS011;46318;52.716;6.444;2022-07-03T00:38:32;5.30;;;4.07;;
60472;SDS011;46318;52.716;6.444;2022-07-03T00:40:59;4.20;;;3.85;;
60472;SDS011;46318;52.716;6.444;2022-07-03T00:43:27;4.43;;;4.03;;
60472;SDS011;46318;52.716;6.444;2022-07-03T00:45:53;5.05;;;4.00;;
60472;SDS011;46318;52.716;6.444;2022-07-03T00:48:19;4.72;;;3.83;;
60472;SDS011;46318;52.716;6.444;2022-07-03T00:50:47;4.90;;;4.40;;
60472;SDS011;46318;52.716;6.444;2022-07-03T00:53:18;4.60;;;4.20;;
60472;SDS011;46318;52.716;6.444;2022-07-03T00:55:52;6.40;;;4.05;;
60472;SDS011;46318;52.716;6.444;2022-07-03T00:58:20;4.72;;;4.20;;
60472;SDS011;46318;52.716;6.444;2022-07-03T01:00:45;4.35;;;3.95;;
60472;SDS011;46318;52.716;6.444;2022-07-03T01:03:16;4.70;;;4.23;;
60472;SDS011;46318;52.716;6.444;2022-07-03T01:05:45;4.53;;;4.13;;
60472;SDS011;46318;52.716;6.444;2022-07-03T01:08:34;5.13;;;4.32;;
60472;SDS011;46318;52.716;6.444;2022-07-03T01:14:26;4.70;;;4.30;;
60472;SDS011;46318;52.716;6.444;2022-07-03T01:19:39;5.53;;;4.55;;
60472;SDS011;46318;52.716;6.444;2022-07-03T01:22:28;5.20;;;4.70;;
60472;SDS011;46318;52.716;6.444;2022-07-03T01:30:29;5.95;;;5.10;;
60472;SDS011;46318;52.716;6.444;2022-07-03T01:35:31;6.93;;;5.53;;
60472;SDS011;46318;52.716;6.444;2022-07-03T01:38:04;6.40;;;5.45;;
60472;SDS011;46318;52.716;6.444;2022-07-03T01:40:39;6.00;;;5.40;;
60472;SDS011;46318;52.716;6.444;2022-07-03T01:43:08;5.80;;;5.30;;
60472;SDS011;46318;52.716;6.444;2022-07-03T01:45:38;7.03;;;6.32;;
60472;SDS011;46318;52.716;6.444;2022-07-03T01:48:09;7.35;;;6.32;;
60472;SDS011;46318;52.716;6.444;2022-07-03T01:50:37;7.55;;;6.55;;
60472;SDS011;46318;52.716;6.444;2022-07-03T01:53:05;7.18;;;6.47;;
60472;SDS011;46318;52.716;6.444;2022-07-03T01:55:34;6.97;;;6.25;;
60472;SDS011;46318;52.716;6.444;2022-07-03T01:58:03;8.23;;;6.53;;
60472;SDS011;46318;52.716;6.444;2022-07-03T02:00:30;6.90;;;6.30;;
60472;SDS011;46318;52.716;6.444;2022-07-03T02:03:12;7.35;;;6.57;;
60472;SDS011;46318;52.716;6.444;2022-07-03T02:05:53;10.93;;;6.50;;
60472;SDS011;46318;52.716;6.444;2022-07-03T02:08:39;7.00;;;6.38;;
60472;SDS011;46318;52.716;6.444;2022-07-03T02:11:33;6.85;;;6.25;;
60472;SDS011;46318;52.716;6.444;2022-07-03T02:14:19;7.28;;;6.57;;
60472;SDS011;46318;52.716;6.444;2022-07-03T02:19:46;7.57;;;6.88;;
60472;SDS011;46318;52.716;6.444;2022-07-03T02:22:31;7.75;;;7.05;;
60472;SDS011;46318;52.716;6.444;2022-07-03T02:25:05;7.53;;;6.82;;
60472;SDS011;46318;52.716;6.444;2022-07-03T02:27:50;7.90;;;7.20;;
60472;SDS011;46318;52.716;6.444;2022-07-03T02:30:31;7.53;;;6.80;;
60472;SDS011;46318;52.716;6.444;2022-07-03T02:33:01;8.40;;;6.73;;
60472;SDS011;46318;52.716;6.444;2022-07-03T02:35:29;9.15;;;6.88;;
60472;SDS011;46318;52.716;6.444;2022-07-03T02:43:43;6.97;;;6.38;;
60472;SDS011;46318;52.716;6.444;2022-07-03T02:46:14;7.78;;;6.65;;
60472;SDS011;46318;52.716;6.444;2022-07-03T03:00:53;7.38;;;6.78;;
60472;SDS011;46318;52.716;6.444;2022-07-03T03:04:40;6.35;;;5.85;;
60472;SDS011;46318;52.716;6.444;2022-07-03T03:06:54;7.30;;;6.65;;
60472;SDS011;46318;52.716;6.444;2022-07-03T03:09:32;7.60;;;6.80;;
60472;SDS011;46318;52.716;6.444;2022-07-03T03:12:06;7.20;;;6.60;;
60472;SDS011;46318;52.716;6.444;2022-07-03T03:14:38;7.10;;;6.50;;
60472;SDS011;46318;52.716;6.444;2022-07-03T03:17:08;7.82;;;7.15;;
60472;SDS011;46318;52.716;6.444;2022-07-03T03:19:45;7.40;;;6.70;;
60472;SDS011;46318;52.716;6.444;2022-07-03T03:25:03;7.78;;;6.57;;
60472;SDS011;46318;52.716;6.444;2022-07-03T03:27:29;7.25;;;6.75;;
60472;SDS011;46318;52.716;6.444;2022-07-03T03:29:55;7.20;;;6.60;;
60472;SDS011;46318;52.716;6.444;2022-07-03T03:32:22;8.13;;;7.43;;
60472;SDS011;46318;52.716;6.444;2022-07-03T03:34:49;8.15;;;7.07;;
60472;SDS011;46318;52.716;6.444;2022-07-03T03:37:16;7.25;;;6.65;;
60472;SDS011;46318;52.716;6.444;2022-07-03T03:39:42;7.43;;;6.88;;
60472;SDS011;46318;52.716;6.444;2022-07-03T03:42:08;7.97;;;6.70;;
60472;SDS011;46318;52.716;6.444;2022-07-03T03:44:34;7.93;;;7.32;;
60472;SDS011;46318;52.716;6.444;2022-07-03T03:47:00;9.30;;;7.85;;
60472;SDS011;46318;52.716;6.444;2022-07-03T03:49:26;9.40;;;8.02;;
60472;SDS011;46318;52.716;6.444;2022-07-03T03:51:53;8.00;;;7.40;;
60472;SDS011;46318;52.716;6.444;2022-07-03T03:54:19;9.00;;;8.20;;
60472;SDS011;46318;52.716;6.444;2022-07-03T03:56:45;8.13;;;7.43;;
60472;SDS011;46318;52.716;6.444;2022-07-03T03:59:11;8.00;;;7.40;;
60472;SDS011;46318;52.716;6.444;2022-07-03T04:01:37;8.77;;;8.07;;
60472;SDS011;46318;52.716;6.444;2022-07-03T04:04:03;9.32;;;8.40;;
60472;SDS011;46318;52.716;6.444;2022-07-03T04:06:29;8.85;;;8.13;;
60472;SDS011;46318;52.716;6.444;2022-07-03T04:08:54;8.70;;;7.82;;
60472;SDS011;46318;52.716;6.444;2022-07-03T04:11:20;9.95;;;7.80;;
60472;SDS011;46318;52.716;6.444;2022-07-03T04:13:46;9.45;;;8.55;;
60472;SDS011;46318;52.716;6.444;2022-07-03T04:16:12;8.77;;;8.07;;
60472;SDS011;46318;52.716;6.444;2022-07-03T04:18:38;9.88;;;8.98;;
60472;SDS011;46318;52.716;6.444;2022-07-03T04:21:04;10.10;;;8.45;;
60472;SDS011;46318;52.716;6.444;2022-07-03T04:23:30;9.90;;;9.00;;
60472;SDS011;46318;52.716;6.444;2022-07-03T04:26:02;9.52;;;8.73;;
60472;SDS011;46318;52.716;6.444;2022-07-03T04:28:31;9.82;;;8.57;;
60472;SDS011;46318;52.716;6.444;2022-07-03T04:30:57;9.23;;;8.43;;
60472;SDS011;46318;52.716;6.444;2022-07-03T04:33:24;8.77;;;8.18;;
60472;SDS011;46318;52.716;6.444;2022-07-03T04:35:49;10.45;;;8.60;;
60472;SDS011;46318;52.716;6.444;2022-07-03T04:38:15;9.00;;;8.32;;
60472;SDS011;46318;52.716;6.444;2022-07-03T04:40:41;9.45;;;8.60;;
60472;SDS011;46318;52.716;6.444;2022-07-03T04:43:07;9.25;;;8.55;;
60472;SDS011;46318;52.716;6.444;2022-07-03T04:45:33;8.98;;;8.18;;
60472;SDS011;46318;52.716;6.444;2022-07-03T04:47:58;8.02;;;7.43;;
60472;SDS011;46318;52.716;6.444;2022-07-03T04:50:24;9.18;;;8.38;;
60472;SDS011;46318;52.716;6.444;2022-07-03T04:52:50;8.40;;;7.70;;
60472;SDS011;46318;52.716;6.444;2022-07-03T04:55:16;9.07;;;8.38;;
60472;SDS011;46318;52.716;6.444;2022-07-03T04:57:41;7.90;;;7.40;;
60472;SDS011;46318;52.716;6.444;2022-07-03T05:00:07;9.25;;;8.40;;
60472;SDS011;46318;52.716;6.444;2022-07-03T05:02:34;9.07;;;8.27;;
60472;SDS011;46318;52.716;6.444;2022-07-03T05:05:00;8.50;;;7.70;;
60472;SDS011;46318;52.716;6.444;2022-07-03T05:07:26;8.55;;;7.85;;
60472;SDS011;46318;52.716;6.444;2022-07-03T05:09:51;8.77;;;7.90;;
60472;SDS011;46318;52.716;6.444;2022-07-03T05:12:17;9.13;;;8.23;;
60472;SDS011;46318;52.716;6.444;2022-07-03T05:14:43;9.13;;;8.32;;
60472;SDS011;46318;52.716;6.444;2022-07-03T05:17:09;9.25;;;8.60;;
60472;SDS011;46318;52.716;6.444;2022-07-03T05:19:36;9.07;;;8.27;;
60472;SDS011;46318;52.716;6.444;2022-07-03T05:22:03;10.23;;;9.35;;
60472;SDS011;46318;52.716;6.444;2022-07-03T05:24:29;10.32;;;9.40;;
60472;SDS011;46318;52.716;6.444;2022-07-03T05:26:55;10.75;;;9.85;;
60472;SDS011;46318;52.716;6.444;2022-07-03T05:29:21;10.60;;;9.63;;
60472;SDS011;46318;52.716;6.444;2022-07-03T05:31:46;10.20;;;9.30;;
60472;SDS011;46318;52.716;6.444;2022-07-03T05:34:12;10.60;;;9.65;;
60472;SDS011;46318;52.716;6.444;2022-07-03T05:36:38;10.77;;;9.88;;
60472;SDS011;46318;52.716;6.444;2022-07-03T05:39:04;11.77;;;10.80;;
60472;SDS011;46318;52.716;6.444;2022-07-03T05:41:48;12.27;;;11.20;;
60472;SDS011;46318;52.716;6.444;2022-07-03T05:44:13;11.73;;;10.80;;
60472;SDS011;46318;52.716;6.444;2022-07-03T05:46:39;11.38;;;10.30;;
60472;SDS011;46318;52.716;6.444;2022-07-03T05:49:05;11.13;;;10.07;;
60472;SDS011;46318;52.716;6.444;2022-07-03T05:51:31;10.05;;;9.18;;
60472;SDS011;46318;52.716;6.444;2022-07-03T05:53:56;10.38;;;9.27;;
60472;SDS011;46318;52.716;6.444;2022-07-03T05:56:22;10.25;;;9.50;;
60472;SDS011;46318;52.716;6.444;2022-07-03T05:58:49;10.23;;;9.43;;
60472;SDS011;46318;52.716;6.444;2022-07-03T06:01:15;11.77;;;10.88;;
60472;SDS011;46318;52.716;6.444;2022-07-03T06:03:41;10.80;;;9.70;;
60472;SDS011;46318;52.716;6.444;2022-07-03T06:06:07;9.85;;;9.05;;
60472;SDS011;46318;52.716;6.444;2022-07-03T06:08:33;10.13;;;9.32;;
60472;SDS011;46318;52.716;6.444;2022-07-03T06:10:59;10.65;;;9.65;;
60472;SDS011;46318;52.716;6.444;2022-07-03T06:13:24;11.18;;;10.02;;
60472;SDS011;46318;52.716;6.444;2022-07-03T06:15:50;10.25;;;9.35;;
60472;SDS011;46318;52.716;6.444;2022-07-03T06:18:19;8.70;;;7.93;;
60472;SDS011;46318;52.716;6.444;2022-07-03T06:20:44;8.68;;;7.90;;
60472;SDS011;46318;52.716;6.444;2022-07-03T06:23:10;8.75;;;7.10;;
60472;SDS011;46318;52.716;6.444;2022-07-03T06:25:36;7.13;;;6.40;;
60472;SDS011;46318;52.716;6.444;2022-07-03T06:28:02;7.07;;;6.13;;
60472;SDS011;46318;52.716;6.444;2022-07-03T06:30:28;7.82;;;5.80;;
60472;SDS011;46318;52.716;6.444;2022-07-03T06:32:53;8.63;;;5.63;;
60472;SDS011;46318;52.716;6.444;2022-07-03T06:35:19;6.25;;;5.10;;
60472;SDS011;46318;52.716;6.444;2022-07-03T06:37:45;6.97;;;4.75;;
60472;SDS011;46318;52.716;6.444;2022-07-03T06:40:11;5.75;;;5.22;;
60472;SDS011;46318;52.716;6.444;2022-07-03T06:42:37;5.95;;;4.70;;
60472;SDS011;46318;52.716;6.444;2022-07-03T06:45:02;5.68;;;4.70;;
60472;SDS011;46318;52.716;6.444;2022-07-03T06:47:29;5.13;;;4.63;;
60472;SDS011;46318;52.716;6.444;2022-07-03T06:49:54;5.75;;;4.80;;
60472;SDS011;46318;52.716;6.444;2022-07-03T06:52:20;5.50;;;4.53;;
60472;SDS011;46318;52.716;6.444;2022-07-03T06:54:46;5.20;;;4.18;;
60472;SDS011;46318;52.716;6.444;2022-07-03T06:57:13;4.32;;;3.28;;
60472;SDS011;46318;52.716;6.444;2022-07-03T06:59:39;3.33;;;3.13;;
60472;SDS011;46318;52.716;6.444;2022-07-03T07:02:05;3.78;;;3.17;;
60472;SDS011;46318;52.716;6.444;2022-07-03T07:04:31;3.35;;;3.05;;
60472;SDS011;46318;52.716;6.444;2022-07-03T07:06:57;2.95;;;2.67;;
60472;SDS011;46318;52.716;6.444;2022-07-03T07:09:23;3.17;;;2.70;;
60472;SDS011;46318;52.716;6.444;2022-07-03T07:11:49;7.05;;;2.50;;
60472;SDS011;46318;52.716;6.444;2022-07-03T07:14:14;3.40;;;2.05;;
60472;SDS011;46318;52.716;6.444;2022-07-03T07:16:40;3.78;;;2.30;;
60472;SDS011;46318;52.716;6.444;2022-07-03T07:19:06;2.80;;;2.58;;
60472;SDS011;46318;52.716;6.444;2022-07-03T07:21:32;3.33;;;2.20;;
60472;SDS011;46318;52.716;6.444;2022-07-03T07:23:57;5.55;;;2.20;;
60472;SDS011;46318;52.716;6.444;2022-07-03T07:26:23;3.13;;;2.20;;
60472;SDS011;46318;52.716;6.444;2022-07-03T07:28:49;4.30;;;2.58;;
60472;SDS011;46318;52.716;6.444;2022-07-03T07:31:15;3.40;;;2.55;;
60472;SDS011;46318;52.716;6.444;2022-07-03T07:33:41;3.15;;;2.85;;
60472;SDS011;46318;52.716;6.444;2022-07-03T07:36:06;4.90;;;2.80;;
60472;SDS011;46318;52.716;6.444;2022-07-03T07:38:33;3.22;;;2.40;;
60472;SDS011;46318;52.716;6.444;2022-07-03T07:40:59;3.05;;;2.17;;
60472;SDS011;46318;52.716;6.444;2022-07-03T07:43:25;2.03;;;1.83;;
60472;SDS011;46318;52.716;6.444;2022-07-03T07:45:50;3.70;;;1.77;;
60472;SDS011;46318;52.716;6.444;2022-07-03T07:48:17;2.42;;;2.00;;
60472;SDS011;46318;52.716;6.444;2022-07-03T07:50:44;2.72;;;1.90;;
60472;SDS011;46318;52.716;6.444;2022-07-03T07:53:09;2.55;;;1.63;;
60472;SDS011;46318;52.716;6.444;2022-07-03T07:55:35;2.95;;;1.58;;
60472;SDS011;46318;52.716;6.444;2022-07-03T07:58:01;3.75;;;1.85;;
60472;SDS011;46318;52.716;6.444;2022-07-03T08:00:27;2.75;;;1.70;;
60472;SDS011;46318;52.716;6.444;2022-07-03T08:02:53;2.38;;;1.50;;
60472;SDS011;46318;52.716;6.444;2022-07-03T08:05:37;2.40;;;1.30;;
60472;SDS011;46318;52.716;6.444;2022-07-03T08:08:07;3.63;;;1.80;;
60472;SDS011;46318;52.716;6.444;2022-07-03T08:10:42;4.50;;;1.95;;
60472;SDS011;46318;52.716;6.444;2022-07-03T08:13:15;1.85;;;1.50;;
60472;SDS011;46318;52.716;6.444;2022-07-03T08:15:46;3.03;;;1.52;;
60472;SDS011;46318;52.716;6.444;2022-07-03T08:18:12;3.38;;;2.00;;
60472;SDS011;46318;52.716;6.444;2022-07-03T08:20:39;4.22;;;1.80;;
60472;SDS011;46318;52.716;6.444;2022-07-03T08:23:04;4.80;;;2.17;;
60472;SDS011;46318;52.716;6.444;2022-07-03T08:25:30;3.38;;;1.67;;
60472;SDS011;46318;52.716;6.444;2022-07-03T08:27:57;2.28;;;1.45;;
60472;SDS011;46318;52.716;6.444;2022-07-03T08:30:24;2.92;;;1.80;;
60472;SDS011;46318;52.716;6.444;2022-07-03T08:32:50;3.83;;;1.80;;
60472;SDS011;46318;52.716;6.444;2022-07-03T08:35:19;3.38;;;1.70;;
60472;SDS011;46318;52.716;6.444;2022-07-03T08:37:45;4.22;;;1.60;;
60472;SDS011;46318;52.716;6.444;2022-07-03T08:40:15;4.25;;;1.63;;
60472;SDS011;46318;52.716;6.444;2022-07-03T08:42:47;4.03;;;1.88;;
60472;SDS011;46318;52.716;6.444;2022-07-03T08:45:27;3.17;;;1.70;;
60472;SDS011;46318;52.716;6.444;2022-07-03T08:47:55;3.53;;;1.80;;
60472;SDS011;46318;52.716;6.444;2022-07-03T08:50:24;3.60;;;1.77;;
60472;SDS011;46318;52.716;6.444;2022-07-03T08:52:50;2.65;;;1.58;;
60472;SDS011;46318;52.716;6.444;2022-07-03T08:55:17;2.40;;;1.48;;
60472;SDS011;46318;52.716;6.444;2022-07-03T08:57:44;2.00;;;1.48;;
60472;SDS011;46318;52.716;6.444;2022-07-03T09:00:18;3.40;;;1.70;;
60472;SDS011;46318;52.716;6.444;2022-07-03T09:02:45;1.40;;;1.08;;
60472;SDS011;46318;52.716;6.444;2022-07-03T09:05:13;3.22;;;1.40;;
60472;SDS011;46318;52.716;6.444;2022-07-03T09:07:42;2.42;;;1.20;;
60472;SDS011;46318;52.716;6.444;2022-07-03T09:10:14;2.55;;;1.10;;
60472;SDS011;46318;52.716;6.444;2022-07-03T09:12:43;2.88;;;1.27;;
60472;SDS011;46318;52.716;6.444;2022-07-03T09:15:12;2.88;;;1.60;;
60472;SDS011;46318;52.716;6.444;2022-07-03T09:17:38;1.92;;;0.90;;
60472;SDS011;46318;52.716;6.444;2022-07-03T09:20:05;3.10;;;1.00;;
60472;SDS011;46318;52.716;6.444;2022-07-03T09:22:33;2.92;;;1.25;;
60472;SDS011;46318;52.716;6.444;2022-07-03T09:25:08;2.90;;;1.25;;
60472;SDS011;46318;52.716;6.444;2022-07-03T09:27:36;3.25;;;0.95;;
60472;SDS011;46318;52.716;6.444;2022-07-03T09:30:13;3.35;;;0.93;;
60472;SDS011;46318;52.716;6.444;2022-07-03T09:35:22;2.38;;;0.90;;
60472;SDS011;46318;52.716;6.444;2022-07-03T09:37:52;2.40;;;1.10;;
60472;SDS011;46318;52.716;6.444;2022-07-03T09:40:24;6.72;;;1.20;;
60472;SDS011;46318;52.716;6.444;2022-07-03T09:48:25;2.55;;;1.23;;
60472;SDS011;46318;52.716;6.444;2022-07-03T09:51:14;2.35;;;1.02;;
60472;SDS011;46318;52.716;6.444;2022-07-03T09:53:57;1.70;;;1.08;;
60472;SDS011;46318;52.716;6.444;2022-07-03T09:56:28;2.67;;;1.00;;
60472;SDS011;46318;52.716;6.444;2022-07-03T10:01:44;1.75;;;0.90;;
60472;SDS011;46318;52.716;6.444;2022-07-03T10:06:46;1.40;;;0.90;;
60472;SDS011;46318;52.716;6.444;2022-07-03T10:09:24;3.10;;;1.10;;
60472;SDS011;46318;52.716;6.444;2022-07-03T10:11:56;2.65;;;1.35;;
60472;SDS011;46318;52.716;6.444;2022-07-03T10:14:27;1.52;;;1.20;;
60472;SDS011;46318;52.716;6.444;2022-07-03T10:16:57;1.98;;;1.23;;
60472;SDS011;46318;52.716;6.444;2022-07-03T10:19:27;1.60;;;0.93;;
60472;SDS011;46318;52.716;6.444;2022-07-03T10:22:05;2.40;;;1.20;;
60472;SDS011;46318;52.716;6.444;2022-07-03T10:24:35;3.40;;;1.75;;
60472;SDS011;46318;52.716;6.444;2022-07-03T10:27:01;2.45;;;1.10;;
60472;SDS011;46318;52.716;6.444;2022-07-03T10:29:28;3.60;;;1.00;;
60472;SDS011;46318;52.716;6.444;2022-07-03T10:31:54;3.47;;;1.00;;
60472;SDS011;46318;52.716;6.444;2022-07-03T10:34:22;2.95;;;0.90;;
60472;SDS011;46318;52.716;6.444;2022-07-03T10:36:51;2.90;;;1.23;;
60472;SDS011;46318;52.716;6.444;2022-07-03T10:40:07;1.52;;;0.77;;
60472;SDS011;46318;52.716;6.444;2022-07-03T10:42:24;6.18;;;1.67;;
60472;SDS011;46318;52.716;6.444;2022-07-03T10:45:15;2.20;;;0.90;;
60472;SDS011;46318;52.716;6.444;2022-07-03T10:47:48;2.53;;;1.10;;
60472;SDS011;46318;52.716;6.444;2022-07-03T10:52:43;1.80;;;1.05;;
60472;SDS011;46318;52.716;6.444;2022-07-03T10:55:10;1.95;;;1.02;;
60472;SDS011;46318;52.716;6.444;2022-07-03T10:57:38;3.92;;;2.80;;
60472;SDS011;46318;52.716;6.444;2022-07-03T11:02:50;1.00;;;0.82;;
60472;SDS011;46318;52.716;6.444;2022-07-03T11:05:21;1.33;;;1.00;;
60472;SDS011;46318;52.716;6.444;2022-07-03T11:15:37;2.00;;;0.80;;
60472;SDS011;46318;52.716;6.444;2022-07-03T11:28:50;1.70;;;0.90;;
60472;SDS011;46318;52.716;6.444;2022-07-03T11:31:19;3.20;;;0.90;;
60472;SDS011;46318;52.716;6.444;2022-07-03T11:38:42;2.00;;;1.02;;
60472;SDS011;46318;52.716;6.444;2022-07-03T11:41:11;2.10;;;0.70;;
60472;SDS011;46318;52.716;6.444;2022-07-03T11:43:46;3.05;;;1.00;;
60472;SDS011;46318;52.716;6.444;2022-07-03T11:46:19;2.15;;;1.23;;
60472;SDS011;46318;52.716;6.444;2022-07-03T11:51:33;4.63;;;1.70;;
60472;SDS011;46318;52.716;6.444;2022-07-03T11:54:00;2.72;;;1.20;;
60472;SDS011;46318;52.716;6.444;2022-07-03T11:56:26;4.55;;;1.25;;
60472;SDS011;46318;52.716;6.444;2022-07-03T11:58:56;5.75;;;1.48;;
60472;SDS011;46318;52.716;6.444;2022-07-03T12:03:50;4.90;;;1.70;;
60472;SDS011;46318;52.716;6.444;2022-07-03T12:06:42;10.15;;;8.65;;
60472;SDS011;46318;52.716;6.444;2022-07-03T12:09:27;5.00;;;1.35;;
60472;SDS011;46318;52.716;6.444;2022-07-03T12:12:04;3.72;;;1.27;;
60472;SDS011;46318;52.716;6.444;2022-07-03T12:19:43;4.78;;;1.30;;
60472;SDS011;46318;52.716;6.444;2022-07-03T12:22:34;3.75;;;1.40;;
60472;SDS011;46318;52.716;6.444;2022-07-03T12:27:42;5.00;;;1.58;;
60472;SDS011;46318;52.716;6.444;2022-07-03T12:30:10;3.25;;;1.35;;
60472;SDS011;46318;52.716;6.444;2022-07-03T12:32:44;5.10;;;1.58;;
60472;SDS011;46318;52.716;6.444;2022-07-03T12:35:10;3.95;;;1.50;;
60472;SDS011;46318;52.716;6.444;2022-07-03T12:37:37;4.13;;;1.88;;
60472;SDS011;46318;52.716;6.444;2022-07-03T12:40:06;4.60;;;1.85;;
60472;SDS011;46318;52.716;6.444;2022-07-03T12:42:49;3.35;;;1.10;;
60472;SDS011;46318;52.716;6.444;2022-07-03T12:45:20;2.78;;;1.33;;
60472;SDS011;46318;52.716;6.444;2022-07-03T12:48:05;3.90;;;1.45;;
60472;SDS011;46318;52.716;6.444;2022-07-03T12:50:44;5.88;;;1.55;;
60472;SDS011;46318;52.716;6.444;2022-07-03T12:53:25;3.15;;;1.27;;
60472;SDS011;46318;52.716;6.444;2022-07-03T12:55:52;3.00;;;1.15;;
60472;SDS011;46318;52.716;6.444;2022-07-03T12:58:22;3.38;;;1.10;;
60472;SDS011;46318;52.716;6.444;2022-07-03T13:01:09;2.78;;;1.25;;
60472;SDS011;46318;52.716;6.444;2022-07-03T13:03:59;4.60;;;2.03;;
60472;SDS011;46318;52.716;6.444;2022-07-03T13:06:25;3.28;;;1.20;;
60472;SDS011;46318;52.716;6.444;2022-07-03T13:08:52;3.25;;;1.20;;
60472;SDS011;46318;52.716;6.444;2022-07-03T13:14:02;4.10;;;1.35;;
60472;SDS011;46318;52.716;6.444;2022-07-03T13:19:11;2.55;;;1.30;;
60472;SDS011;46318;52.716;6.444;2022-07-03T13:21:40;7.20;;;1.30;;
60472;SDS011;46318;52.716;6.444;2022-07-03T13:24:08;12.23;;;3.00;;
60472;SDS011;46318;52.716;6.444;2022-07-03T13:26:36;10.35;;;3.78;;
60472;SDS011;46318;52.716;6.444;2022-07-03T13:29:03;6.40;;;2.78;;
60472;SDS011;46318;52.716;6.444;2022-07-03T13:31:29;7.07;;;3.15;;
60472;SDS011;46318;52.716;6.444;2022-07-03T13:33:56;9.60;;;3.85;;
60472;SDS011;46318;52.716;6.444;2022-07-03T13:36:24;3.88;;;2.25;;
60472;SDS011;46318;52.716;6.444;2022-07-03T13:38:51;2.85;;;2.08;;
60472;SDS011;46318;52.716;6.444;2022-07-03T13:41:17;4.50;;;2.15;;
60472;SDS011;46318;52.716;6.444;2022-07-03T13:43:44;2.70;;;1.70;;
60472;SDS011;46318;52.716;6.444;2022-07-03T13:46:10;2.72;;;2.03;;
60472;SDS011;46318;52.716;6.444;2022-07-03T13:48:37;3.80;;;1.52;;
60472;SDS011;46318;52.716;6.444;2022-07-03T13:51:02;3.22;;;1.55;;
60472;SDS011;46318;52.716;6.444;2022-07-03T13:53:29;1.50;;;1.40;;
60472;SDS011;46318;52.716;6.444;2022-07-03T13:55:55;1.77;;;1.55;;
60472;SDS011;46318;52.716;6.444;2022-07-03T13:58:23;2.63;;;1.33;;
60472;SDS011;46318;52.716;6.444;2022-07-03T14:00:52;1.60;;;1.40;;
60472;SDS011;46318;52.716;6.444;2022-07-03T14:03:19;1.75;;;1.52;;
60472;SDS011;46318;52.716;6.444;2022-07-03T14:05:45;1.75;;;1.65;;
60472;SDS011;46318;52.716;6.444;2022-07-03T14:08:13;2.13;;;1.88;;
60472;SDS011;46318;52.716;6.444;2022-07-03T14:10:39;2.30;;;2.10;;
60472;SDS011;46318;52.716;6.444;2022-07-03T14:13:05;3.55;;;1.73;;
60472;SDS011;46318;52.716;6.444;2022-07-03T14:15:32;2.08;;;1.90;;
60472;SDS011;46318;52.716;6.444;2022-07-03T14:17:58;3.13;;;2.17;;
60472;SDS011;46318;52.716;6.444;2022-07-03T14:20:26;2.22;;;1.90;;
60472;SDS011;46318;52.716;6.444;2022-07-03T14:22:53;3.88;;;1.65;;
60472;SDS011;46318;52.716;6.444;2022-07-03T14:25:19;2.17;;;1.90;;
60472;SDS011;46318;52.716;6.444;2022-07-03T14:27:45;3.38;;;2.05;;
60472;SDS011;46318;52.716;6.444;2022-07-03T14:30:29;3.83;;;1.98;;
60472;SDS011;46318;52.716;6.444;2022-07-03T14:33:13;2.85;;;1.80;;
60472;SDS011;46318;52.716;6.444;2022-07-03T14:35:39;2.17;;;1.65;;
60472;SDS011;46318;52.716;6.444;2022-07-03T14:38:05;6.47;;;5.88;;
60472;SDS011;46318;52.716;6.444;2022-07-03T14:40:30;2.42;;;1.95;;
60472;SDS011;46318;52.716;6.444;2022-07-03T14:42:56;2.10;;;1.88;;
60472;SDS011;46318;52.716;6.444;2022-07-03T14:45:22;3.15;;;2.25;;
60472;SDS011;46318;52.716;6.444;2022-07-03T14:47:49;2.40;;;2.08;;
60472;SDS011;46318;52.716;6.444;2022-07-03T14:50:15;3.35;;;2.60;;
60472;SDS011;46318;52.716;6.444;2022-07-03T14:52:41;3.28;;;2.63;;
60472;SDS011;46318;52.716;6.444;2022-07-03T14:55:07;3.25;;;2.55;;
60472;SDS011;46318;52.716;6.444;2022-07-03T15:00:31;3.30;;;2.70;;
60472;SDS011;46318;52.716;6.444;2022-07-03T15:03:06;3.33;;;2.47;;
60472;SDS011;46318;52.716;6.444;2022-07-03T15:05:40;4.22;;;3.10;;
60472;SDS011;46318;52.716;6.444;2022-07-03T15:11:06;4.95;;;3.30;;
60472;SDS011;46318;52.716;6.444;2022-07-03T15:13:58;4.85;;;3.47;;
60472;SDS011;46318;52.716;6.444;2022-07-03T15:16:29;11.18;;;8.45;;
60472;SDS011;46318;52.716;6.444;2022-07-03T15:18:58;6.38;;;4.43;;
60472;SDS011;46318;52.716;6.444;2022-07-03T15:21:29;5.82;;;4.53;;
60472;SDS011;46318;52.716;6.444;2022-07-03T15:24:00;3.95;;;3.25;;
60472;SDS011;46318;52.716;6.444;2022-07-03T15:26:30;3.65;;;2.58;;
60472;SDS011;46318;52.716;6.444;2022-07-03T15:28:57;3.83;;;2.92;;
60472;SDS011;46318;52.716;6.444;2022-07-03T15:31:28;2.70;;;2.50;;
60472;SDS011;46318;52.716;6.444;2022-07-03T15:34:03;5.60;;;2.58;;
60472;SDS011;46318;52.716;6.444;2022-07-03T15:36:35;3.38;;;2.55;;
60472;SDS011;46318;52.716;6.444;2022-07-03T15:39:11;2.85;;;2.55;;
60472;SDS011;46318;52.716;6.444;2022-07-03T15:47:10;2.47;;;1.42;;
60472;SDS011;46318;52.716;6.444;2022-07-03T15:49:56;1.27;;;1.10;;
60472;SDS011;46318;52.716;6.444;2022-07-03T15:52:24;1.17;;;1.08;;
60472;SDS011;46318;52.716;6.444;2022-07-03T15:55:08;2.22;;;1.20;;
60472;SDS011;46318;52.716;6.444;2022-07-03T16:00:21;2.40;;;1.20;;
60472;SDS011;46318;52.716;6.444;2022-07-03T16:05:50;1.95;;;1.38;;
60472;SDS011;46318;52.716;6.444;2022-07-03T16:08:17;2.03;;;1.00;;
60472;SDS011;46318;52.716;6.444;2022-07-03T16:10:43;2.20;;;1.35;;
60472;SDS011;46318;52.716;6.444;2022-07-03T16:13:09;1.90;;;1.20;;
60472;SDS011;46318;52.716;6.444;2022-07-03T16:15:37;3.47;;;1.48;;
60472;SDS011;46318;52.716;6.444;2022-07-03T16:18:05;1.60;;;1.48;;
60472;SDS011;46318;52.716;6.444;2022-07-03T16:20:32;1.42;;;1.20;;
60472;SDS011;46318;52.716;6.444;2022-07-03T16:23:02;1.63;;;0.95;;
60472;SDS011;46318;52.716;6.444;2022-07-03T16:25:31;2.05;;;1.17;;
60472;SDS011;46318;52.716;6.444;2022-07-03T16:28:07;1.92;;;1.23;;
60472;SDS011;46318;52.716;6.444;2022-07-03T16:30:36;1.67;;;1.13;;
60472;SDS011;46318;52.716;6.444;2022-07-03T16:33:14;2.58;;;1.30;;
60472;SDS011;46318;52.716;6.444;2022-07-03T16:35:51;1.67;;;0.93;;
60472;SDS011;46318;52.716;6.444;2022-07-03T16:38:26;2.30;;;1.10;;
60472;SDS011;46318;52.716;6.444;2022-07-03T16:41:04;1.48;;;1.20;;
60472;SDS011;46318;52.716;6.444;2022-07-03T16:43:32;1.33;;;1.00;;
60472;SDS011;46318;52.716;6.444;2022-07-03T16:46:06;1.30;;;1.10;;
60472;SDS011;46318;52.716;6.444;2022-07-03T16:48:37;3.25;;;1.50;;
60472;SDS011;46318;52.716;6.444;2022-07-03T16:51:14;1.35;;;1.20;;
60472;SDS011;46318;52.716;6.444;2022-07-03T16:53:42;7.18;;;1.63;;
60472;SDS011;46318;52.716;6.444;2022-07-03T16:56:10;1.45;;;0.90;;